createdAt,value
2017-11-30T00:01:40.552Z,-0.90
2017-11-30T00:04:09.694Z,-0.80
2017-11-30T00:06:38.023Z,-0.80
2017-11-30T00:09:07.155Z,-0.60
2017-11-30T00:11:36.246Z,-0.50
2017-11-30T00:14:04.598Z,-0.50
2017-11-30T00:16:32.950Z,-0.50
2017-11-30T00:19:01.283Z,-0.50
2017-11-30T00:21:30.395Z,-0.40
2017-11-30T00:23:58.717Z,-0.40
2017-11-30T00:26:27.069Z,-0.20
2017-11-30T00:28:55.415Z,-0.40
2017-11-30T00:31:23.879Z,-0.30
2017-11-30T00:33:52.966Z,-0.10
2017-11-30T00:36:21.310Z,-0.10
2017-11-30T00:38:49.643Z,0.00
2017-11-30T00:41:18.756Z,-0.10
2017-11-30T00:43:47.863Z,-0.10
2017-11-30T00:46:16.231Z,-0.10
2017-11-30T00:48:44.582Z,0.00
2017-11-30T00:51:13.704Z,-0.10
2017-11-30T00:53:42.069Z,-0.10
2017-11-30T00:56:11.195Z,0.10
2017-11-30T00:58:39.516Z,0.10
2017-11-30T01:01:07.857Z,0.20
2017-11-30T01:03:36.200Z,0.20
2017-11-30T01:06:04.536Z,0.30
2017-11-30T01:08:32.876Z,0.30
2017-11-30T01:11:01.227Z,0.30
2017-11-30T01:13:29.550Z,0.30
2017-11-30T01:15:57.887Z,0.40
2017-11-30T01:18:26.999Z,0.20
2017-11-30T01:20:56.092Z,0.30
2017-11-30T01:23:24.446Z,0.20
2017-11-30T01:25:52.759Z,0.30
2017-11-30T01:28:21.875Z,0.30
2017-11-30T01:30:50.208Z,0.30
2017-11-30T01:33:18.551Z,0.40
2017-11-30T01:35:46.864Z,0.30
2017-11-30T01:38:15.229Z,0.30
2017-11-30T01:40:43.596Z,0.30
2017-11-30T01:43:11.952Z,0.40
2017-11-30T01:45:40.265Z,0.30
2017-11-30T01:48:08.610Z,0.30
2017-11-30T01:50:36.918Z,0.20
2017-11-30T01:53:05.277Z,0.10
2017-11-30T01:55:33.582Z,0.10
2017-11-30T01:58:01.907Z,0.10
2017-11-30T02:00:30.246Z,0.10
2017-11-30T02:02:58.582Z,-0.10
2017-11-30T02:05:26.943Z,-0.30
2017-11-30T02:07:56.055Z,-0.30
2017-11-30T02:10:24.402Z,-0.30
2017-11-30T02:12:53.473Z,0.00
2017-11-30T02:15:21.815Z,0.00
2017-11-30T02:17:50.123Z,0.10
2017-11-30T02:20:18.477Z,0.00
2017-11-30T02:22:46.831Z,-0.10
2017-11-30T02:25:15.213Z,-0.10
2017-11-30T02:27:43.559Z,0.10
2017-11-30T02:30:12.667Z,-0.10
2017-11-30T02:32:41.787Z,0.10
2017-11-30T02:35:10.120Z,0.10
2017-11-30T02:37:38.491Z,-0.10
2017-11-30T02:40:06.828Z,0.00
2017-11-30T02:42:35.199Z,0.00
2017-11-30T02:45:03.556Z,0.10
2017-11-30T02:47:31.905Z,0.30
2017-11-30T02:50:00.235Z,0.30
2017-11-30T02:52:28.583Z,0.30
2017-11-30T02:54:57.703Z,0.40
2017-11-30T02:57:26.060Z,0.40
2017-11-30T02:59:54.407Z,0.40
2017-11-30T03:02:22.757Z,0.40
2017-11-30T03:04:51.089Z,0.40
2017-11-30T03:07:19.435Z,0.40
2017-11-30T03:09:47.760Z,0.50
2017-11-30T03:12:16.880Z,0.50
2017-11-30T03:14:45.192Z,0.50
2017-11-30T03:17:13.532Z,0.40
2017-11-30T03:19:42.634Z,0.10
2017-11-30T03:22:10.971Z,0.10
2017-11-30T03:24:39.295Z,0.20
2017-11-30T03:27:07.639Z,0.40
2017-11-30T03:29:35.960Z,0.50
2017-11-30T03:32:04.326Z,0.50
2017-11-30T03:34:32.634Z,0.60
2017-11-30T03:37:00.952Z,0.60
2017-11-30T03:39:29.295Z,0.60
2017-11-30T03:41:57.611Z,0.60
2017-11-30T03:44:25.949Z,0.60
2017-11-30T03:46:54.292Z,0.60
2017-11-30T03:49:22.705Z,0.70
2017-11-30T03:51:51.044Z,0.70
2017-11-30T03:54:19.399Z,0.70
2017-11-30T03:56:47.719Z,0.80
2017-11-30T03:59:16.060Z,0.80
2017-11-30T04:01:44.388Z,0.80
2017-11-30T04:04:12.736Z,0.90
2017-11-30T04:06:41.840Z,0.90
2017-11-30T04:09:10.920Z,0.80
2017-11-30T04:11:39.265Z,0.80
2017-11-30T04:14:07.591Z,0.90
2017-11-30T04:16:35.945Z,1.00
2017-11-30T04:19:04.264Z,1.00
2017-11-30T04:21:32.601Z,1.00
2017-11-30T04:24:00.917Z,1.00
2017-11-30T04:26:29.260Z,1.00
2017-11-30T04:28:57.574Z,1.00
2017-11-30T04:31:25.913Z,1.00
2017-11-30T04:33:54.221Z,1.10
2017-11-30T04:36:23.318Z,1.00
2017-11-30T04:38:52.405Z,1.20
2017-11-30T04:41:21.504Z,1.20
2017-11-30T04:43:50.596Z,1.20
2017-11-30T04:46:19.695Z,1.20
2017-11-30T04:48:48.019Z,1.20
2017-11-30T04:51:16.360Z,1.10
2017-11-30T04:53:45.447Z,1.20
2017-11-30T04:56:14.551Z,1.20
2017-11-30T04:58:44.410Z,1.20
2017-11-30T05:01:12.764Z,1.20
2017-11-30T05:03:41.097Z,1.20
2017-11-30T05:06:09.406Z,1.20
2017-11-30T05:08:37.763Z,1.10
2017-11-30T05:11:06.076Z,1.10
2017-11-30T05:13:34.431Z,1.20
2017-11-30T05:16:02.747Z,1.20
2017-11-30T05:18:31.103Z,1.20
2017-11-30T05:20:59.417Z,1.20
2017-11-30T05:23:27.773Z,1.10
2017-11-30T05:25:56.083Z,1.10
2017-11-30T05:28:24.435Z,1.10
2017-11-30T05:30:52.755Z,1.10
2017-11-30T05:33:21.079Z,1.10
2017-11-30T05:35:49.399Z,1.10
2017-11-30T05:38:17.725Z,1.10
2017-11-30T05:40:46.807Z,1.10
2017-11-30T05:43:15.916Z,1.10
2017-11-30T05:45:45.008Z,1.10
2017-11-30T05:48:16.496Z,1.10
2017-11-30T05:50:44.805Z,1.10
2017-11-30T05:53:13.126Z,1.10
2017-11-30T05:55:41.439Z,1.10
2017-11-30T05:58:10.539Z,1.20
2017-11-30T06:00:38.852Z,1.10
2017-11-30T06:03:07.183Z,1.10
2017-11-30T06:05:35.503Z,1.00
2017-11-30T06:08:03.838Z,1.10
2017-11-30T06:10:32.159Z,0.90
2017-11-30T06:13:00.495Z,1.00
2017-11-30T06:15:28.801Z,1.00
2017-11-30T06:17:57.130Z,1.00
2017-11-30T06:20:25.435Z,1.00
2017-11-30T06:22:53.789Z,1.10
2017-11-30T06:25:22.106Z,1.00
2017-11-30T06:27:50.451Z,1.00
2017-11-30T06:30:18.774Z,1.00
2017-11-30T06:32:47.108Z,1.00
2017-11-30T06:35:15.415Z,0.90
2017-11-30T06:37:43.755Z,0.90
2017-11-30T06:40:12.088Z,0.90
2017-11-30T06:42:40.427Z,0.90
2017-11-30T06:45:08.747Z,0.80
2017-11-30T06:47:37.086Z,0.90
2017-11-30T06:50:05.406Z,0.90
2017-11-30T06:52:33.775Z,0.70
2017-11-30T06:55:02.092Z,0.80
2017-11-30T06:57:30.459Z,0.70
2017-11-30T06:59:58.766Z,0.70
2017-11-30T07:02:27.123Z,0.60
2017-11-30T07:04:55.437Z,0.60
2017-11-30T07:07:23.767Z,0.50
2017-11-30T07:09:52.099Z,0.50
2017-11-30T07:12:20.420Z,0.50
2017-11-30T07:14:48.759Z,0.60
2017-11-30T07:17:17.854Z,0.50
2017-11-30T07:19:46.194Z,0.50
2017-11-30T07:22:15.266Z,0.40
2017-11-30T07:24:43.602Z,0.40
2017-11-30T07:27:11.924Z,0.40
2017-11-30T07:29:40.270Z,0.50
2017-11-30T07:32:09.051Z,0.40
2017-11-30T07:34:38.164Z,0.40
2017-11-30T07:37:06.499Z,0.40
2017-11-30T07:39:35.592Z,0.40
2017-11-30T07:42:04.696Z,0.30
2017-11-30T07:44:33.021Z,0.30
2017-11-30T07:47:01.359Z,0.30
2017-11-30T07:49:29.671Z,0.30
2017-11-30T07:51:58.017Z,0.30
2017-11-30T07:54:26.355Z,0.30
2017-11-30T07:56:54.754Z,0.20
2017-11-30T07:59:23.042Z,0.30
2017-11-30T08:01:52.118Z,0.70
2017-11-30T08:04:20.471Z,0.70
2017-11-30T08:06:48.785Z,0.70
2017-11-30T08:09:17.876Z,1.10
2017-11-30T08:11:46.181Z,1.10
2017-11-30T08:14:14.551Z,1.20
2017-11-30T08:16:43.624Z,1.50
2017-11-30T08:19:11.967Z,1.50
2017-11-30T08:21:40.287Z,1.50
2017-11-30T08:24:08.626Z,1.20
2017-11-30T08:26:36.942Z,1.00
2017-11-30T08:29:05.278Z,1.00
2017-11-30T08:31:33.601Z,1.10
2017-11-30T08:34:01.941Z,1.10
2017-11-30T08:36:30.248Z,1.20
2017-11-30T08:38:58.591Z,1.20
2017-11-30T08:41:26.923Z,1.20
2017-11-30T08:43:56.041Z,1.20
2017-11-30T08:46:24.358Z,1.20
2017-11-30T08:48:52.690Z,1.20
2017-11-30T08:51:21.018Z,1.20
2017-11-30T08:53:49.354Z,1.20
2017-11-30T08:56:17.684Z,1.20
2017-11-30T08:58:46.040Z,1.20
2017-11-30T09:01:14.385Z,1.20
2017-11-30T09:03:42.731Z,1.20
2017-11-30T09:06:11.064Z,1.10
2017-11-30T09:08:39.402Z,1.10
2017-11-30T09:11:08.478Z,1.20
2017-11-30T09:13:36.837Z,1.20
2017-11-30T09:16:05.175Z,1.40
2017-11-30T09:18:33.523Z,1.40
2017-11-30T09:21:01.855Z,1.30
2017-11-30T09:23:30.250Z,1.30
2017-11-30T09:25:58.616Z,1.40
2017-11-30T09:28:27.003Z,1.40
2017-11-30T09:30:59.012Z,1.40
2017-11-30T09:33:28.184Z,1.40
2017-11-30T09:35:57.313Z,1.40
2017-11-30T09:38:26.430Z,1.50
2017-11-30T09:40:54.802Z,1.40
2017-11-30T09:43:24.027Z,1.30
2017-11-30T09:45:53.000Z,1.40
2017-11-30T09:48:21.318Z,1.40
2017-11-30T09:50:49.656Z,1.40
2017-11-30T09:53:18.748Z,1.40
2017-11-30T09:55:47.856Z,1.50
2017-11-30T09:58:16.183Z,1.50
2017-11-30T10:00:44.534Z,1.60
2017-11-30T10:03:12.861Z,1.60
2017-11-30T10:05:41.209Z,1.70
2017-11-30T10:08:09.539Z,1.80
2017-11-30T10:10:38.675Z,2.00
2017-11-30T10:13:06.998Z,2.00
2017-11-30T10:15:36.102Z,2.10
2017-11-30T10:18:05.213Z,2.10
2017-11-30T10:20:33.540Z,2.10
2017-11-30T10:23:01.890Z,2.10
2017-11-30T10:25:30.220Z,2.20
2017-11-30T10:27:59.355Z,2.80
2017-11-30T10:30:27.674Z,2.80
2017-11-30T10:32:56.034Z,2.70
2017-11-30T10:35:24.360Z,2.80
2017-11-30T10:37:55.936Z,2.90
2017-11-30T10:40:24.288Z,2.80
2017-11-30T10:42:52.640Z,2.70
2017-11-30T10:45:20.960Z,2.50
2017-11-30T10:47:50.062Z,2.70
2017-11-30T10:50:19.134Z,2.90
2017-11-30T10:52:47.467Z,2.80
2017-11-30T10:55:15.797Z,3.00
2017-11-30T10:57:44.134Z,2.70
2017-11-30T11:00:12.454Z,2.70
2017-11-30T11:02:41.589Z,2.60
2017-11-30T11:05:09.927Z,2.60
2017-11-30T11:07:38.250Z,2.50
2017-11-30T11:10:06.604Z,2.60
2017-11-30T11:12:35.685Z,2.50
2017-11-30T11:15:04.032Z,2.50
2017-11-30T11:17:32.396Z,2.50
2017-11-30T11:20:00.712Z,2.50
2017-11-30T11:22:29.066Z,2.40
2017-11-30T11:24:57.415Z,2.50
2017-11-30T11:27:25.729Z,2.50
2017-11-30T11:29:54.058Z,2.60
2017-11-30T11:32:22.408Z,2.70
2017-11-30T11:34:50.732Z,2.70
2017-11-30T11:37:19.076Z,2.80
2017-11-30T11:39:48.165Z,2.80
2017-11-30T11:42:16.512Z,2.80
2017-11-30T11:44:44.852Z,2.90
2017-11-30T11:47:13.209Z,2.90
2017-11-30T11:49:41.533Z,2.80
2017-11-30T11:52:09.877Z,2.80
2017-11-30T11:54:38.974Z,2.80
2017-11-30T11:57:08.080Z,2.80
2017-11-30T11:59:36.390Z,2.80
2017-11-30T12:02:04.733Z,2.70
2017-11-30T12:04:33.829Z,2.60
2017-11-30T12:07:02.939Z,2.70
2017-11-30T12:09:31.257Z,2.70
2017-11-30T12:11:59.639Z,2.70
2017-11-30T12:14:27.957Z,2.80
2017-11-30T12:16:57.067Z,2.80
2017-11-30T12:19:25.441Z,2.80
2017-11-30T12:21:54.544Z,2.80
2017-11-30T12:24:22.885Z,2.80
2017-11-30T12:26:51.214Z,2.80
2017-11-30T12:29:19.552Z,2.70
2017-11-30T12:31:47.892Z,2.70
2017-11-30T12:34:16.236Z,2.80
2017-11-30T12:36:44.565Z,2.80
2017-11-30T12:39:12.918Z,2.90
2017-11-30T12:41:41.262Z,2.90
2017-11-30T12:44:09.636Z,2.80
2017-11-30T12:46:38.728Z,2.70
2017-11-30T12:49:07.844Z,2.70
2017-11-30T12:51:39.479Z,2.60
2017-11-30T12:54:07.796Z,2.70
2017-11-30T12:56:36.139Z,2.70
2017-11-30T12:59:05.231Z,2.70
2017-11-30T13:01:34.359Z,2.70
2017-11-30T13:04:02.672Z,2.60
2017-11-30T13:06:31.011Z,2.50
2017-11-30T13:09:00.305Z,2.50
2017-11-30T13:11:29.414Z,2.60
2017-11-30T13:13:57.738Z,2.60
2017-11-30T13:16:26.083Z,2.70
2017-11-30T13:18:54.402Z,2.60
2017-11-30T13:21:22.747Z,2.70
2017-11-30T13:23:51.824Z,2.70
2017-11-30T13:26:20.196Z,2.70
2017-11-30T13:28:48.518Z,2.60
2017-11-30T13:31:16.843Z,2.70
2017-11-30T13:33:45.964Z,2.80
2017-11-30T13:36:14.290Z,2.80
2017-11-30T13:38:42.638Z,2.80
2017-11-30T13:41:10.954Z,2.80
2017-11-30T13:43:39.287Z,2.80
2017-11-30T13:46:07.611Z,2.80
2017-11-30T13:48:35.945Z,2.70
2017-11-30T13:51:04.264Z,2.70
2017-11-30T13:53:32.624Z,2.70
2017-11-30T13:56:00.948Z,2.80
2017-11-30T13:58:30.031Z,2.70
2017-11-30T14:00:58.418Z,2.60
2017-11-30T14:03:26.943Z,2.70
2017-11-30T14:05:55.283Z,2.70
2017-11-30T14:08:24.366Z,2.60
2017-11-30T14:10:53.475Z,2.60
2017-11-30T14:13:22.569Z,2.70
2017-11-30T14:15:51.672Z,2.60
2017-11-30T14:18:20.755Z,2.60
2017-11-30T14:20:49.874Z,2.60
2017-11-30T14:23:18.185Z,2.60
2017-11-30T14:25:46.543Z,2.60
2017-11-30T14:28:14.894Z,2.60
2017-11-30T14:30:44.010Z,2.70
2017-11-30T14:33:12.400Z,2.60
2017-11-30T14:35:40.745Z,2.50
2017-11-30T14:38:09.066Z,2.60
2017-11-30T14:40:37.458Z,2.60
2017-11-30T14:43:05.769Z,2.50
2017-11-30T14:45:34.118Z,2.50
2017-11-30T14:48:02.452Z,2.50
2017-11-30T14:50:31.567Z,2.40
2017-11-30T14:52:59.895Z,2.40
2017-11-30T14:55:28.243Z,2.50
2017-11-30T14:57:56.565Z,2.40
2017-11-30T15:00:25.725Z,2.30
2017-11-30T15:02:54.060Z,2.40
2017-11-30T15:05:23.174Z,2.40
2017-11-30T15:07:51.485Z,2.30
2017-11-30T15:10:19.855Z,2.30
2017-11-30T15:12:48.173Z,2.30
2017-11-30T15:15:16.518Z,2.30
2017-11-30T15:17:44.836Z,2.20
2017-11-30T15:20:13.194Z,2.20
2017-11-30T15:22:41.509Z,2.20
2017-11-30T15:25:10.638Z,2.20
2017-11-30T15:27:38.966Z,2.20
2017-11-30T15:30:07.310Z,2.20
2017-11-30T15:32:35.621Z,2.30
2017-11-30T15:35:03.957Z,2.30
2017-11-30T15:37:32.285Z,3.00
2017-11-30T15:40:00.629Z,3.30
2017-11-30T15:42:28.952Z,2.90
2017-11-30T15:44:58.066Z,2.60
2017-11-30T15:47:26.391Z,2.60
2017-11-30T15:49:54.734Z,2.70
2017-11-30T15:52:23.054Z,2.70
2017-11-30T15:54:52.191Z,2.70
2017-11-30T15:57:21.279Z,2.60
2017-11-30T15:59:50.381Z,2.70
2017-11-30T16:02:19.468Z,2.70
2017-11-30T16:04:47.905Z,2.70
2017-11-30T16:07:16.227Z,2.70
2017-11-30T16:09:45.310Z,2.90
2017-11-30T16:12:13.661Z,2.90
2017-11-30T16:14:41.987Z,3.20
2017-11-30T16:17:10.346Z,2.80
2017-11-30T16:19:38.653Z,2.80
2017-11-30T16:22:06.982Z,2.70
2017-11-30T16:24:36.839Z,2.70
2017-11-30T16:27:05.196Z,2.70
2017-11-30T16:29:34.298Z,2.60
2017-11-30T16:32:02.686Z,2.60
2017-11-30T16:34:31.779Z,2.60
2017-11-30T16:37:00.878Z,2.60
2017-11-30T16:39:29.980Z,2.50
2017-11-30T16:41:59.051Z,2.50
2017-11-30T16:44:27.408Z,2.50
2017-11-30T16:46:55.736Z,2.60
2017-11-30T16:49:24.844Z,2.60
2017-11-30T16:51:53.160Z,2.60
2017-11-30T16:54:21.538Z,2.60
2017-11-30T16:56:49.865Z,2.60
2017-11-30T16:59:18.972Z,2.60
2017-11-30T17:01:48.054Z,2.50
2017-11-30T17:04:17.156Z,2.40
2017-11-30T17:06:46.278Z,2.40
2017-11-30T17:09:14.625Z,2.40
2017-11-30T17:11:43.701Z,2.50
2017-11-30T17:14:12.072Z,2.40
2017-11-30T17:16:40.393Z,2.40
2017-11-30T17:19:09.517Z,2.50
2017-11-30T17:21:37.828Z,2.40
2017-11-30T17:24:06.135Z,2.40
2017-11-30T17:26:35.234Z,2.40
2017-11-30T17:29:04.329Z,2.50
2017-11-30T17:31:33.430Z,2.60
2017-11-30T17:34:02.519Z,2.40
2017-11-30T17:36:32.145Z,2.40
2017-11-30T17:39:00.473Z,2.40
2017-11-30T17:41:28.814Z,2.40
2017-11-30T17:43:57.122Z,2.20
2017-11-30T17:46:25.478Z,2.00
2017-11-30T17:48:54.605Z,2.00
2017-11-30T17:51:22.934Z,2.10
2017-11-30T17:53:52.008Z,2.30
2017-11-30T17:56:20.353Z,2.30
2017-11-30T17:58:48.666Z,2.30
2017-11-30T18:01:17.761Z,2.10
2017-11-30T18:03:46.085Z,2.10
2017-11-30T18:06:14.465Z,2.20
2017-11-30T18:08:42.794Z,2.20
2017-11-30T18:11:11.146Z,2.20
2017-11-30T18:13:39.466Z,2.20
2017-11-30T18:16:08.590Z,2.30
2017-11-30T18:18:36.926Z,2.30
2017-11-30T18:21:05.249Z,2.40
2017-11-30T18:23:33.586Z,2.40
2017-11-30T18:26:01.928Z,2.40
2017-11-30T18:28:30.261Z,2.30
2017-11-30T18:30:58.616Z,2.40
2017-11-30T18:33:26.950Z,2.30
2017-11-30T18:35:55.320Z,2.30
2017-11-30T18:38:23.652Z,2.20
2017-11-30T18:40:51.978Z,2.20
2017-11-30T18:43:20.346Z,2.20
2017-11-30T18:45:48.682Z,2.20
2017-11-30T18:48:17.008Z,2.30
2017-11-30T18:50:45.353Z,2.20
2017-11-30T18:53:13.683Z,2.30
2017-11-30T18:55:42.052Z,2.30
2017-11-30T18:58:10.386Z,2.30
2017-11-30T19:00:38.724Z,2.30
2017-11-30T19:03:07.067Z,2.30
2017-11-30T19:05:35.440Z,2.30
2017-11-30T19:08:04.513Z,2.30
2017-11-30T19:10:32.851Z,2.30
2017-11-30T19:13:01.183Z,2.20
2017-11-30T19:15:29.528Z,2.20
2017-11-30T19:17:57.855Z,2.30
2017-11-30T19:20:26.948Z,2.30
2017-11-30T19:22:56.020Z,2.40
2017-11-30T19:25:24.370Z,2.40
2017-11-30T19:27:52.692Z,2.30
2017-11-30T19:30:21.802Z,2.10
2017-11-30T19:32:50.884Z,2.10
2017-11-30T19:35:19.230Z,2.10
2017-11-30T19:37:47.547Z,2.10
2017-11-30T19:40:16.672Z,2.10
2017-11-30T19:42:44.989Z,2.10
2017-11-30T19:45:13.336Z,2.10
2017-11-30T19:47:41.670Z,2.10
2017-11-30T19:50:10.034Z,2.10
2017-11-30T19:52:38.366Z,2.00
2017-11-30T19:55:06.717Z,2.10
2017-11-30T19:57:35.815Z,2.10
2017-11-30T20:00:04.159Z,2.00
2017-11-30T20:02:33.290Z,1.80
2017-11-30T20:05:02.406Z,1.90
2017-11-30T20:07:30.732Z,1.90
2017-11-30T20:09:59.072Z,1.80
2017-11-30T20:12:27.395Z,1.80
2017-11-30T20:14:55.739Z,1.90
2017-11-30T20:17:27.786Z,1.80
2017-11-30T20:19:56.116Z,1.90
2017-11-30T20:22:24.526Z,1.90
2017-11-30T20:24:53.615Z,1.90
2017-11-30T20:27:21.973Z,1.80
2017-11-30T20:29:50.298Z,1.90
2017-11-30T20:32:18.657Z,1.90
2017-11-30T20:34:47.749Z,2.00
2017-11-30T20:37:16.091Z,1.90
2017-11-30T20:39:44.410Z,2.00
2017-11-30T20:42:13.536Z,2.00
2017-11-30T20:44:41.877Z,2.00
2017-11-30T20:47:10.198Z,2.10
2017-11-30T20:49:38.566Z,2.00
2017-11-30T20:52:06.928Z,2.10
2017-11-30T20:54:36.113Z,2.00
2017-11-30T20:57:04.452Z,1.90
2017-11-30T20:59:32.784Z,2.00
2017-11-30T21:02:01.891Z,2.10
2017-11-30T21:04:30.994Z,2.00
2017-11-30T21:06:59.304Z,2.00
2017-11-30T21:09:28.409Z,1.90
2017-11-30T21:11:56.738Z,1.90
2017-11-30T21:14:25.865Z,1.90
2017-11-30T21:16:54.207Z,1.90
2017-11-30T21:19:23.301Z,2.00
2017-11-30T21:21:52.406Z,2.00
2017-11-30T21:24:21.508Z,2.00
2017-11-30T21:26:50.591Z,2.00
2017-11-30T21:29:19.694Z,2.00
2017-11-30T21:31:48.792Z,2.00
2017-11-30T21:34:17.918Z,2.00
2017-11-30T21:36:46.241Z,2.00
2017-11-30T21:39:17.545Z,2.10
2017-11-30T21:41:45.863Z,2.10
2017-11-30T21:44:14.979Z,2.10
2017-11-30T21:46:44.086Z,2.10
2017-11-30T21:49:13.173Z,2.10
2017-11-30T21:51:42.274Z,2.00
2017-11-30T21:54:11.356Z,2.10
2017-11-30T21:56:40.471Z,2.10
2017-11-30T21:59:09.573Z,2.10
2017-11-30T22:01:38.867Z,2.10
2017-11-30T22:04:07.947Z,2.20
2017-11-30T22:06:36.303Z,2.10
2017-11-30T22:09:04.726Z,2.20
2017-11-30T22:11:33.822Z,2.10
2017-11-30T22:14:02.918Z,2.10
2017-11-30T22:16:32.022Z,2.10
2017-11-30T22:19:01.104Z,2.00
2017-11-30T22:21:29.451Z,2.00
2017-11-30T22:23:57.767Z,2.00
2017-11-30T22:26:26.898Z,2.00
2017-11-30T22:28:55.201Z,2.00
2017-11-30T22:31:23.550Z,2.00
2017-11-30T22:33:51.861Z,2.10
2017-11-30T22:36:20.220Z,2.10
2017-11-30T22:38:48.559Z,2.00
2017-11-30T22:41:16.896Z,2.10
2017-11-30T22:43:45.227Z,2.10
2017-11-30T22:46:13.569Z,2.10
2017-11-30T22:48:41.892Z,2.20
2017-11-30T22:51:10.209Z,2.20
2017-11-30T22:53:38.572Z,2.30
2017-11-30T22:56:06.902Z,2.20
2017-11-30T22:58:39.508Z,2.30
2017-11-30T23:01:07.837Z,2.20
2017-11-30T23:03:36.218Z,2.20
2017-11-30T23:06:04.543Z,2.20
2017-11-30T23:08:32.887Z,2.20
2017-11-30T23:11:01.214Z,2.20
2017-11-30T23:13:29.578Z,2.20
2017-11-30T23:15:57.886Z,2.20
2017-11-30T23:18:26.239Z,2.10
2017-11-30T23:20:54.589Z,2.10
2017-11-30T23:23:23.712Z,2.10
2017-11-30T23:25:52.028Z,2.10
2017-11-30T23:28:20.346Z,2.20
2017-11-30T23:30:49.457Z,2.20
2017-11-30T23:33:17.767Z,2.10
2017-11-30T23:35:46.109Z,2.10
2017-11-30T23:38:14.446Z,2.10
2017-11-30T23:40:42.787Z,2.10
2017-11-30T23:43:11.103Z,2.10
2017-11-30T23:45:39.445Z,2.10
2017-11-30T23:48:07.770Z,2.00
2017-11-30T23:50:36.117Z,1.90
2017-11-30T23:53:04.425Z,2.00
2017-11-30T23:55:32.767Z,2.00
2017-11-30T23:58:01.085Z,2.00
